Hidden Timber, South Dakota
Current Conditions -  °F | °C
As of 6:52 PM on Wednesday 22 Oct 2014 (Local Time) from KVTN Reporting Station
Clear Clear  
Wind Chill: 58°   Ceiling: Unl
Heat Index: 58°   Visibility: 10mi
Dew Point: 39°   Wind: 0mph
Humidity: 49%   Direction: NA
Pressure: 30.03"   Gusts: NA
Location:  43.1909°N, 100.475°W
Report Text: KVTN 222352Z AUTO 00000KT 10SM CLR 14/04 A3003 RMK AO2 SLP163 T01440039 10189 20144 53009
Loading
Personal Weather Stations






























Interactive Weather Map
Tropical Storm Tracking
New forecast layout! Learn more

10-Day Weather Forecast

Advertisements
Track Severe Weather on mobile